createdAt,value
2023-04-14T00:00:02.195Z,6.30
2023-04-14T00:05:11.911Z,6.40
2023-04-14T00:07:40.593Z,6.40
2023-04-14T00:10:09.903Z,6.90
2023-04-14T00:12:38.633Z,6.60
2023-04-14T00:15:07.350Z,6.90
2023-04-14T00:17:37.786Z,7.60
2023-04-14T00:20:06.838Z,7.20
2023-04-14T00:22:34.851Z,7.20
2023-04-14T00:25:04.060Z,6.70
2023-04-14T00:27:32.707Z,7.70
2023-04-14T00:30:05.861Z,6.60
2023-04-14T00:32:40.541Z,6.60
2023-04-14T00:35:08.888Z,8.80
2023-04-14T00:37:37.671Z,6.80
2023-04-14T00:40:09.207Z,7.90
2023-04-14T00:42:47.052Z,7.60
2023-04-14T00:45:15.206Z,7.90
2023-04-14T00:47:47.190Z,8.60
2023-04-14T00:50:17.874Z,8.90
2023-04-14T00:52:47.087Z,8.10
2023-04-14T00:55:16.213Z,9.20
2023-04-14T00:57:44.313Z,8.20
2023-04-14T01:00:14.185Z,9.70
2023-04-14T01:02:46.622Z,8.90
2023-04-14T01:05:15.965Z,9.00
2023-04-14T01:07:44.512Z,9.90
2023-04-14T01:10:12.728Z,8.70
2023-04-14T01:13:00.457Z,8.50
2023-04-14T01:15:36.113Z,9.20
2023-04-14T01:18:13.383Z,8.50
2023-04-14T01:20:45.031Z,9.80
2023-04-14T01:23:18.029Z,9.00
2023-04-14T01:26:08.734Z,10.20
2023-04-14T01:28:59.216Z,9.20
2023-04-14T01:32:01.837Z,9.40
2023-04-14T01:34:45.913Z,10.30
2023-04-14T01:37:18.122Z,9.70
2023-04-14T01:39:48.602Z,11.30
2023-04-14T01:42:18.898Z,12.00
2023-04-14T01:44:46.965Z,11.50
2023-04-14T01:47:16.107Z,8.40
2023-04-14T01:49:44.071Z,9.60
2023-04-14T01:52:13.583Z,10.40
2023-04-14T01:54:42.511Z,10.50
2023-04-14T01:57:11.243Z,9.50
2023-04-14T01:59:40.640Z,11.80
2023-04-14T02:02:11.565Z,10.70
2023-04-14T02:04:39.826Z,11.30
2023-04-14T02:07:08.552Z,11.20
2023-04-14T02:09:36.570Z,11.50
2023-04-14T02:12:04.777Z,11.70
2023-04-14T02:14:32.809Z,11.90
2023-04-14T02:17:02.963Z,11.60
2023-04-14T02:19:31.493Z,12.40
2023-04-14T02:21:59.498Z,11.30
2023-04-14T02:24:28.693Z,12.20
2023-04-14T02:27:05.553Z,12.50
2023-04-14T02:29:34.088Z,13.00
2023-04-14T02:32:06.358Z,13.30
2023-04-14T02:34:38.053Z,12.10
2023-04-14T02:37:10.184Z,12.20
2023-04-14T02:39:42.876Z,12.90
2023-04-14T02:42:16.730Z,13.00
2023-04-14T02:44:49.239Z,11.60
2023-04-14T02:47:27.114Z,14.00
2023-04-14T02:49:59.467Z,13.40
2023-04-14T02:52:29.374Z,14.80
2023-04-14T02:55:00.727Z,14.30
2023-04-14T02:57:29.752Z,14.10
2023-04-14T02:59:58.697Z,14.40
2023-04-14T03:02:29.965Z,14.20
2023-04-14T03:05:06.668Z,15.00
2023-04-14T03:07:42.362Z,15.00
2023-04-14T03:10:11.962Z,14.50
2023-04-14T03:12:42.886Z,15.50
2023-04-14T03:15:12.109Z,15.80
2023-04-14T03:17:40.474Z,15.40
2023-04-14T03:20:13.754Z,17.30
2023-04-14T03:22:42.002Z,14.90
2023-04-14T03:25:12.558Z,16.10
2023-04-14T03:27:42.339Z,15.90
2023-04-14T03:30:10.817Z,15.50
2023-04-14T03:32:42.238Z,14.20
2023-04-14T03:35:14.379Z,15.10
2023-04-14T03:37:42.778Z,15.40
2023-04-14T03:40:11.887Z,15.90
2023-04-14T03:42:44.853Z,16.30
2023-04-14T03:45:13.541Z,16.10
2023-04-14T03:47:42.659Z,16.90
2023-04-14T03:50:10.769Z,17.10
2023-04-14T03:52:39.800Z,18.90
2023-04-14T03:55:08.560Z,18.90
2023-04-14T03:57:38.423Z,20.60
2023-04-14T04:00:09.302Z,20.00
2023-04-14T04:02:46.316Z,19.50
2023-04-14T04:05:14.614Z,19.50
2023-04-14T04:07:44.511Z,18.40
2023-04-14T04:10:12.961Z,17.50
2023-04-14T04:12:44.064Z,18.30
2023-04-14T04:15:22.164Z,17.80
2023-04-14T04:17:50.459Z,17.60
2023-04-14T04:20:18.729Z,18.30
2023-04-14T04:22:47.915Z,18.90
2023-04-14T04:25:16.558Z,18.20
2023-04-14T04:27:49.406Z,19.60
2023-04-14T04:30:18.659Z,17.90
2023-04-14T04:32:47.719Z,18.00
2023-04-14T04:35:16.175Z,18.90
2023-04-14T04:37:45.662Z,18.70
2023-04-14T04:40:13.887Z,18.10
2023-04-14T04:42:42.772Z,18.80
2023-04-14T04:47:42.470Z,18.80
2023-04-14T04:50:10.427Z,19.00
2023-04-14T04:52:38.645Z,18.50
2023-04-14T04:55:07.382Z,18.80
2023-04-14T04:57:36.590Z,18.10
2023-04-14T05:00:05.473Z,19.30
2023-04-14T05:02:36.530Z,17.30
2023-04-14T05:05:05.527Z,18.00
2023-04-14T05:07:33.713Z,16.70
2023-04-14T05:10:05.631Z,17.10
2023-04-14T05:12:35.717Z,17.70
2023-04-14T05:15:03.964Z,17.90
2023-04-14T05:17:32.219Z,17.80
2023-04-14T05:20:02.127Z,17.70
2023-04-14T05:22:30.622Z,17.20
2023-04-14T05:24:58.714Z,17.40
2023-04-14T05:27:26.986Z,17.10
2023-04-14T05:29:55.480Z,18.20
2023-04-14T05:32:23.480Z,18.10
2023-04-14T05:34:51.513Z,18.20
2023-04-14T05:37:19.680Z,16.50
2023-04-14T05:39:47.612Z,17.50
2023-04-14T05:42:16.443Z,17.80
2023-04-14T05:44:44.463Z,16.60
2023-04-14T05:47:12.359Z,18.20
2023-04-14T05:49:40.965Z,18.40
2023-04-14T05:52:09.307Z,17.30
2023-04-14T05:54:40.893Z,17.90
2023-04-14T05:57:11.376Z,15.60
2023-04-14T05:59:39.516Z,18.50
2023-04-14T06:02:08.094Z,18.10
2023-04-14T06:04:36.310Z,18.00
2023-04-14T06:07:04.375Z,17.50
2023-04-14T06:09:34.589Z,15.90
2023-04-14T06:12:07.531Z,17.80
2023-04-14T06:14:36.219Z,18.00
2023-04-14T06:17:09.988Z,17.80
2023-04-14T06:19:38.052Z,19.30
2023-04-14T06:22:07.151Z,16.30
2023-04-14T06:24:35.333Z,18.60
2023-04-14T06:27:04.091Z,18.70
2023-04-14T06:29:33.460Z,16.40
2023-04-14T06:32:01.559Z,18.10
2023-04-14T06:34:32.812Z,17.80
2023-04-14T06:37:01.636Z,18.20
2023-04-14T06:39:30.056Z,17.80
2023-04-14T06:42:01.790Z,17.40
2023-04-14T06:44:31.889Z,17.10
2023-04-14T06:46:59.884Z,17.50
2023-04-14T06:49:33.611Z,16.10
2023-04-14T06:52:01.552Z,18.40
2023-04-14T06:54:32.000Z,17.50
2023-04-14T06:57:01.108Z,18.60
2023-04-14T06:59:29.763Z,18.30
2023-04-14T07:01:58.897Z,17.60
2023-04-14T07:04:27.009Z,16.10
2023-04-14T07:07:00.519Z,17.50
2023-04-14T07:09:29.749Z,17.20
2023-04-14T07:11:57.864Z,17.00
2023-04-14T07:14:26.073Z,16.90
2023-04-14T07:16:57.487Z,17.10
2023-04-14T07:19:25.959Z,16.80
2023-04-14T07:21:54.027Z,16.30
2023-04-14T07:24:24.055Z,16.80
2023-04-14T07:26:51.966Z,18.00
2023-04-14T07:29:19.868Z,16.90
2023-04-14T07:31:49.346Z,16.70
2023-04-14T07:34:18.188Z,16.80
2023-04-14T07:36:46.556Z,16.10
2023-04-14T07:39:14.773Z,17.20
2023-04-14T07:41:43.144Z,17.00
2023-04-14T07:44:11.286Z,17.60
2023-04-14T07:46:41.414Z,17.40
2023-04-14T07:49:09.894Z,15.80
2023-04-14T07:51:37.907Z,16.10
2023-04-14T07:54:06.277Z,16.70
2023-04-14T07:56:34.467Z,16.30
2023-04-14T07:59:02.866Z,15.60
2023-04-14T08:01:31.676Z,15.40
2023-04-14T08:03:59.957Z,14.80
2023-04-14T08:06:28.468Z,15.00
2023-04-14T08:08:56.784Z,14.80
2023-04-14T08:11:24.921Z,15.40
2023-04-14T08:13:53.159Z,14.90
2023-04-14T08:16:21.465Z,13.60
2023-04-14T08:18:50.543Z,13.50
2023-04-14T08:21:18.499Z,14.50
2023-04-14T08:23:47.671Z,14.60
2023-04-14T08:26:15.780Z,14.70
2023-04-14T08:28:44.361Z,14.50
2023-04-14T08:31:16.620Z,15.20
2023-04-14T08:33:46.156Z,14.70
2023-04-14T08:36:15.417Z,15.40
2023-04-14T08:38:46.591Z,13.80
2023-04-14T08:41:15.998Z,14.20
2023-04-14T08:43:45.160Z,15.20
2023-04-14T08:46:14.699Z,15.20
2023-04-14T08:48:43.498Z,13.20
2023-04-14T08:51:21.733Z,15.30
2023-04-14T08:53:52.734Z,14.90
2023-04-14T08:56:20.798Z,15.80
2023-04-14T08:58:48.748Z,15.00
2023-04-14T09:01:17.555Z,14.00
2023-04-14T09:03:47.510Z,14.50
2023-04-14T09:06:16.016Z,12.90
2023-04-14T09:08:48.317Z,15.00
2023-04-14T09:11:16.822Z,15.10
2023-04-14T09:13:44.845Z,15.10
2023-04-14T09:16:12.941Z,14.50
2023-04-14T09:18:43.584Z,14.20
2023-04-14T09:21:31.270Z,14.00
2023-04-14T09:24:04.210Z,13.90
2023-04-14T09:26:32.365Z,13.90
2023-04-14T09:29:01.306Z,13.30
2023-04-14T09:31:33.939Z,13.40
2023-04-14T09:34:02.411Z,12.40
2023-04-14T09:36:31.419Z,12.90
2023-04-14T09:38:59.440Z,11.80
2023-04-14T09:41:28.138Z,10.70
2023-04-14T09:43:56.200Z,11.20
2023-04-14T09:46:25.387Z,11.20
2023-04-14T09:48:55.321Z,11.30
2023-04-14T09:51:28.310Z,11.90
2023-04-14T09:54:05.384Z,11.30
2023-04-14T09:58:02.603Z,10.90
2023-04-14T10:00:29.767Z,9.80
2023-04-14T10:03:13.957Z,9.40
2023-04-14T10:05:49.231Z,9.70
2023-04-14T10:08:16.301Z,9.40
2023-04-14T10:10:42.797Z,9.60
2023-04-14T10:13:14.409Z,10.10
2023-04-14T10:15:41.820Z,9.50
2023-04-14T10:18:08.524Z,8.80
2023-04-14T10:20:37.349Z,10.00
2023-04-14T10:23:04.596Z,10.10
2023-04-14T10:25:31.360Z,9.60
2023-04-14T10:27:59.205Z,10.50
2023-04-14T10:30:26.410Z,9.60
2023-04-14T10:32:53.282Z,9.30
2023-04-14T10:35:22.564Z,9.90
2023-04-14T10:37:53.185Z,9.50
2023-04-14T10:40:21.628Z,10.70
2023-04-14T10:42:54.410Z,10.70
2023-04-14T10:45:21.516Z,10.30
2023-04-14T10:47:49.244Z,11.30
2023-04-14T10:50:17.219Z,10.50
2023-04-14T10:52:56.293Z,10.50
2023-04-14T10:55:24.405Z,10.60
2023-04-14T10:57:51.432Z,11.60
2023-04-14T11:00:22.719Z,11.50
2023-04-14T11:02:55.308Z,11.10
2023-04-14T11:05:22.131Z,9.80
2023-04-14T11:07:55.178Z,9.70
2023-04-14T11:10:22.278Z,10.50
2023-04-14T11:13:03.222Z,10.10
2023-04-14T11:15:44.058Z,10.30
2023-04-14T11:18:27.248Z,9.40
2023-04-14T11:20:54.131Z,10.20
2023-04-14T11:23:27.043Z,9.70
2023-04-14T11:25:54.680Z,9.60
2023-04-14T11:28:32.126Z,9.80
2023-04-14T11:31:00.941Z,9.30
2023-04-14T11:33:36.559Z,9.50
2023-04-14T11:36:04.919Z,11.10
2023-04-14T11:38:34.900Z,10.20
2023-04-14T11:41:01.528Z,11.90
2023-04-14T11:43:32.456Z,10.40
2023-04-14T11:46:02.526Z,9.90
2023-04-14T11:48:30.104Z,10.70
2023-04-14T11:51:02.480Z,10.30
2023-04-14T11:53:29.306Z,11.20
2023-04-14T11:55:56.901Z,11.20
2023-04-14T11:58:24.508Z,11.10
2023-04-14T12:03:36.277Z,13.50
2023-04-14T12:06:03.090Z,11.20
2023-04-14T12:08:30.428Z,11.60
2023-04-14T12:11:15.103Z,10.70
2023-04-14T12:13:42.845Z,9.90
2023-04-14T12:16:10.668Z,9.70
2023-04-14T12:18:39.979Z,10.60
2023-04-14T12:21:09.868Z,12.00
2023-04-14T12:23:40.691Z,10.90
2023-04-14T12:26:13.727Z,10.70
2023-04-14T12:28:41.161Z,10.90
2023-04-14T12:31:08.449Z,11.10
2023-04-14T12:33:35.827Z,10.00
2023-04-14T12:36:06.777Z,10.20
2023-04-14T12:38:33.541Z,10.20
2023-04-14T12:41:00.284Z,9.90
2023-04-14T12:43:27.896Z,10.10
2023-04-14T12:45:58.017Z,11.50
2023-04-14T12:48:38.323Z,10.80
2023-04-14T12:51:12.752Z,9.90
2023-04-14T12:53:41.012Z,10.90
2023-04-14T12:56:09.752Z,10.10
2023-04-14T12:58:38.474Z,10.30
2023-04-14T13:01:09.357Z,9.60
2023-04-14T13:03:41.261Z,9.80
2023-04-14T13:06:10.756Z,10.00
2023-04-14T13:08:51.634Z,10.30
2023-04-14T13:11:19.350Z,10.60
2023-04-14T13:13:54.433Z,9.80
2023-04-14T13:16:21.630Z,9.60
2023-04-14T13:18:50.921Z,9.30
2023-04-14T13:21:19.427Z,10.50
2023-04-14T13:23:46.320Z,10.00
2023-04-14T13:26:13.123Z,11.20
2023-04-14T13:28:51.050Z,12.10
2023-04-14T13:31:20.051Z,10.70
2023-04-14T13:33:46.878Z,9.90
2023-04-14T13:36:13.388Z,9.40
2023-04-14T13:38:41.191Z,9.50
2023-04-14T13:41:08.174Z,8.90
2023-04-14T13:43:35.538Z,9.80
2023-04-14T13:46:02.462Z,9.40
2023-04-14T13:48:30.533Z,9.30
2023-04-14T13:50:58.677Z,9.50
2023-04-14T13:53:25.262Z,9.50
2023-04-14T13:55:51.926Z,8.20
2023-04-14T13:58:18.770Z,8.80
2023-04-14T14:00:46.247Z,8.40
2023-04-14T14:03:32.782Z,8.80
2023-04-14T14:06:00.854Z,9.00
2023-04-14T14:08:29.622Z,9.10
2023-04-14T14:10:56.197Z,9.20
2023-04-14T14:13:25.228Z,8.30
2023-04-14T14:15:52.224Z,8.20
2023-04-14T14:18:21.976Z,8.60
2023-04-14T14:20:50.749Z,8.20
2023-04-14T14:23:17.587Z,8.90
2023-04-14T14:25:44.765Z,8.70
2023-04-14T14:28:12.046Z,8.90
2023-04-14T14:30:38.866Z,8.10
2023-04-14T14:33:06.284Z,8.10
2023-04-14T14:35:32.826Z,8.40
2023-04-14T14:38:00.810Z,9.10
2023-04-14T14:40:31.161Z,9.30
2023-04-14T14:42:57.913Z,8.70
2023-04-14T14:45:30.365Z,8.90
2023-04-14T14:47:59.304Z,9.00
2023-04-14T14:50:26.745Z,8.50
2023-04-14T14:52:56.198Z,9.00
2023-04-14T14:55:23.108Z,8.80
2023-04-14T14:57:50.658Z,8.20
2023-04-14T15:00:22.602Z,8.40
2023-04-14T15:03:09.271Z,7.70
2023-04-14T15:05:37.641Z,8.20
2023-04-14T15:08:04.332Z,8.70
2023-04-14T15:10:33.122Z,8.60
2023-04-14T15:13:00.552Z,8.40
2023-04-14T15:15:27.417Z,8.30
2023-04-14T15:17:56.256Z,8.20
2023-04-14T15:20:22.866Z,9.00
2023-04-14T15:22:50.205Z,9.10
2023-04-14T15:25:16.787Z,8.80
2023-04-14T15:27:45.045Z,9.10
2023-04-14T15:30:12.027Z,9.00
2023-04-14T15:32:39.268Z,9.10
2023-04-14T15:35:09.051Z,8.50
2023-04-14T15:37:36.399Z,8.40
2023-04-14T15:40:03.529Z,9.30
2023-04-14T15:42:31.664Z,8.40
2023-04-14T15:44:58.203Z,8.70
2023-04-14T15:47:27.634Z,9.40
2023-04-14T15:50:09.590Z,9.30
2023-04-14T15:52:39.039Z,8.50
2023-04-14T15:55:06.807Z,10.30
2023-04-14T15:57:35.038Z,14.90
2023-04-14T16:00:04.085Z,10.20
2023-04-14T16:02:41.376Z,8.20
2023-04-14T16:05:10.533Z,9.30
2023-04-14T16:07:38.786Z,11.20
2023-04-14T16:10:06.384Z,8.00
2023-04-14T16:12:34.559Z,9.50
2023-04-14T16:15:06.414Z,8.20
2023-04-14T16:17:34.432Z,10.10
2023-04-14T16:20:02.183Z,8.90
2023-04-14T16:22:42.249Z,9.00
2023-04-14T16:25:10.181Z,8.40
2023-04-14T16:27:36.794Z,8.30
2023-04-14T16:30:05.387Z,7.50
2023-04-14T16:32:34.689Z,7.60
2023-04-14T16:35:01.781Z,7.80
2023-04-14T16:37:32.543Z,8.50
2023-04-14T16:40:01.077Z,8.60
2023-04-14T16:42:27.839Z,14.00
2023-04-14T16:44:57.651Z,12.30
2023-04-14T16:47:24.939Z,12.70
2023-04-14T16:49:52.403Z,9.30
2023-04-14T16:52:20.718Z,13.20
2023-04-14T16:54:47.760Z,16.20
2023-04-14T16:57:14.847Z,15.90
2023-04-14T16:59:42.496Z,10.40
2023-04-14T17:02:09.244Z,9.30
2023-04-14T17:04:35.930Z,12.40
2023-04-14T17:07:05.635Z,11.70
2023-04-14T17:09:32.742Z,11.40
2023-04-14T17:11:59.870Z,13.40
2023-04-14T17:14:26.473Z,13.50
2023-04-14T17:16:54.192Z,11.40
2023-04-14T17:19:20.882Z,9.40
2023-04-14T17:21:48.972Z,8.50
2023-04-14T17:24:15.672Z,8.20
2023-04-14T17:26:43.668Z,8.60
2023-04-14T17:29:10.412Z,15.80
2023-04-14T17:31:38.542Z,11.40
2023-04-14T17:34:10.016Z,10.40
2023-04-14T17:36:39.512Z,8.30
2023-04-14T17:39:07.583Z,8.30
2023-04-14T17:41:34.230Z,7.60
2023-04-14T17:44:06.611Z,9.00
2023-04-14T17:46:33.855Z,8.30
2023-04-14T17:49:01.257Z,7.20
2023-04-14T17:51:29.392Z,8.10
2023-04-14T17:53:56.457Z,7.60
2023-04-14T17:56:25.035Z,7.50
2023-04-14T17:58:52.171Z,7.40
2023-04-14T18:01:18.983Z,7.60
2023-04-14T18:03:46.479Z,7.60
2023-04-14T18:06:13.538Z,7.70
2023-04-14T18:08:42.925Z,7.50
2023-04-14T18:11:10.471Z,8.00
2023-04-14T18:13:37.528Z,7.90
2023-04-14T18:16:04.569Z,8.30
2023-04-14T18:18:35.819Z,8.30
2023-04-14T18:21:02.654Z,7.40
2023-04-14T18:23:29.513Z,7.90
2023-04-14T18:28:31.089Z,8.30
2023-04-14T18:30:58.746Z,7.70
2023-04-14T18:33:27.409Z,8.00
2023-04-14T18:35:56.138Z,8.90
2023-04-14T18:38:23.416Z,7.60
2023-04-14T18:40:50.252Z,8.50
2023-04-14T18:43:17.256Z,8.10
2023-04-14T18:45:47.712Z,7.90
2023-04-14T18:48:17.412Z,8.10
2023-04-14T18:50:44.553Z,9.40
2023-04-14T18:53:11.461Z,8.80
2023-04-14T18:55:45.046Z,8.90
2023-04-14T18:58:12.593Z,8.90
2023-04-14T19:00:39.345Z,9.00
2023-04-14T19:03:08.149Z,8.50
2023-04-14T19:05:36.370Z,9.40
2023-04-14T19:08:06.879Z,9.60
2023-04-14T19:10:40.351Z,9.50
2023-04-14T19:13:12.008Z,9.50
2023-04-14T19:15:38.614Z,9.60
2023-04-14T19:18:05.336Z,9.50
2023-04-14T19:20:33.058Z,9.80
2023-04-14T19:22:59.906Z,10.50
2023-04-14T19:25:26.710Z,10.40
2023-04-14T19:27:57.292Z,17.30
2023-04-14T19:30:23.952Z,10.40
2023-04-14T19:32:52.799Z,11.80
2023-04-14T19:35:20.151Z,10.50
2023-04-14T19:37:46.678Z,10.40
2023-04-14T19:40:13.883Z,10.60
2023-04-14T19:42:41.504Z,10.10
2023-04-14T19:45:09.623Z,9.00
2023-04-14T19:47:38.198Z,10.40
2023-04-14T19:50:05.409Z,10.30
2023-04-14T19:52:32.090Z,10.30
2023-04-14T19:54:58.813Z,11.40
2023-04-14T19:57:26.878Z,11.20
2023-04-14T19:59:56.846Z,9.50
2023-04-14T20:02:23.391Z,11.50
2023-04-14T20:04:56.906Z,10.00
2023-04-14T20:07:24.063Z,10.30
2023-04-14T20:09:54.154Z,11.50
2023-04-14T20:12:20.691Z,10.40
2023-04-14T20:14:47.175Z,11.10
2023-04-14T20:17:17.873Z,10.00
2023-04-14T20:19:44.958Z,10.30
2023-04-14T20:22:12.832Z,10.40
2023-04-14T20:24:43.353Z,10.30
2023-04-14T20:27:11.125Z,9.10
2023-04-14T20:29:37.656Z,8.20
2023-04-14T20:32:07.027Z,8.50
2023-04-14T20:34:33.584Z,8.60
2023-04-14T20:37:00.900Z,8.30
2023-04-14T20:39:29.072Z,9.00
2023-04-14T20:41:55.928Z,8.10
2023-04-14T20:44:23.326Z,7.50
2023-04-14T20:46:49.992Z,5.70
2023-04-14T20:49:17.536Z,5.60
2023-04-14T20:51:46.092Z,5.20
2023-04-14T20:54:13.313Z,5.30
2023-04-14T20:56:46.653Z,5.10
2023-04-14T20:59:13.234Z,6.00
2023-04-14T21:01:42.103Z,5.80
2023-04-14T21:04:09.764Z,5.80
2023-04-14T21:06:38.000Z,6.00
2023-04-14T21:09:05.365Z,5.50
2023-04-14T21:11:32.415Z,5.40
2023-04-14T21:15:27.198Z,5.60
2023-04-14T21:16:46.226Z,6.20
2023-04-14T21:19:12.841Z,5.70
2023-04-14T21:21:42.968Z,5.90
2023-04-14T21:24:09.881Z,6.30
2023-04-14T21:26:36.623Z,6.00
2023-04-14T21:29:04.658Z,6.30
2023-04-14T21:31:31.826Z,6.10
2023-04-14T21:33:58.404Z,5.70
2023-04-14T21:36:25.305Z,5.80
2023-04-14T21:38:52.406Z,6.00
2023-04-14T21:41:19.379Z,6.80
2023-04-14T21:43:46.777Z,6.50
2023-04-14T21:46:14.290Z,5.90
2023-04-14T21:48:41.240Z,6.40
2023-04-14T21:51:08.416Z,5.80
2023-04-14T21:53:38.036Z,5.90
2023-04-14T21:56:09.439Z,5.40
2023-04-14T21:58:38.699Z,6.70
2023-04-14T22:01:06.444Z,6.50
2023-04-14T22:03:36.740Z,6.10
2023-04-14T22:06:03.747Z,6.30
2023-04-14T22:08:31.075Z,6.30
2023-04-14T22:10:57.567Z,6.10
2023-04-14T22:14:36.729Z,6.90
2023-04-14T22:17:04.779Z,6.80
2023-04-14T22:19:34.173Z,5.80
2023-04-14T22:22:02.082Z,6.40
2023-04-14T22:24:30.734Z,6.50
2023-04-14T22:26:58.790Z,6.70
2023-04-14T22:29:27.265Z,6.90
2023-04-14T22:31:58.950Z,6.30
2023-04-14T22:34:28.851Z,6.50
2023-04-14T22:36:58.050Z,6.60
2023-04-14T22:39:29.306Z,6.90
2023-04-14T22:41:57.677Z,7.00
2023-04-14T22:44:25.703Z,6.80
2023-04-14T22:46:57.200Z,6.40
2023-04-14T22:49:25.243Z,6.90
2023-04-14T22:51:53.320Z,6.50
2023-04-14T22:54:23.006Z,6.40
2023-04-14T22:56:51.057Z,7.50
2023-04-14T22:59:19.042Z,6.80
2023-04-14T23:01:48.316Z,7.00
2023-04-14T23:04:19.315Z,6.10
2023-04-14T23:06:47.908Z,7.40
2023-04-14T23:09:17.449Z,7.60
2023-04-14T23:11:45.767Z,9.70
2023-04-14T23:14:13.947Z,7.10
2023-04-14T23:16:42.612Z,7.20
2023-04-14T23:19:10.645Z,7.60
2023-04-14T23:21:39.662Z,6.50
2023-04-14T23:24:08.097Z,6.90
2023-04-14T23:26:38.334Z,6.90
2023-04-14T23:29:06.792Z,6.70
2023-04-14T23:31:34.818Z,7.30
2023-04-14T23:34:04.517Z,7.30
2023-04-14T23:36:33.296Z,6.50
2023-04-14T23:39:01.585Z,7.30
2023-04-14T23:41:31.633Z,7.70
2023-04-14T23:43:59.985Z,7.40
2023-04-14T23:46:28.425Z,7.20
2023-04-14T23:49:03.113Z,7.20
2023-04-14T23:51:46.855Z,7.10
2023-04-14T23:54:15.467Z,6.90
2023-04-14T23:56:44.415Z,7.00
2023-04-14T23:59:13.307Z,7.60
